Angora, Nebraska
Current Conditions -  °F | °C
As of 11:53 AM on Sunday 23 Nov 2014 (Local Time) from KAIA Reporting Station
Clear Clear  
Wind Chill: 33°   Ceiling: Unl
Heat Index: 43°   Visibility: 10mi
Dew Point: 14°   Wind: 26mph
Humidity: 31%   Direction: 330°NNW
Pressure: 29.74"   Gusts: 39mph
Location:  41.85°N, 103.13°W
Report Text: KAIA 231853Z AUTO 33023G34KT 10SM CLR 06/M10 A2974 RMK AO2 PK WND 33036/1833 SLP071 T00611100
Loading
Personal Weather Stations






























Interactive Weather Map New forecast layout! Learn more

10-Day Weather Forecast

Advertisements
Track Severe Weather on mobile